sensor_id;sensor_type;location;lat;lon;timestamp;pressure;altitude;pressure_sealevel;temperature;humidity
18527;BME280;9393;42.158;24.748;2023-03-08T00:00:35;98806.00;;;11.56;66.43
18527;BME280;9393;42.158;24.748;2023-03-08T00:03:39;98808.66;;;11.24;67.26
18527;BME280;9393;42.158;24.748;2023-03-08T00:06:45;98808.81;;;11.46;65.75
18527;BME280;9393;42.158;24.748;2023-03-08T00:09:49;98806.88;;;11.16;66.37
18527;BME280;9393;42.158;24.748;2023-03-08T00:12:53;98806.53;;;11.51;65.37
18527;BME280;9393;42.158;24.748;2023-03-08T00:15:58;98812.19;;;11.55;65.50
18527;BME280;9393;42.158;24.748;2023-03-08T00:19:02;98815.81;;;11.54;65.51
18527;BME280;9393;42.158;24.748;2023-03-08T00:22:08;98807.66;;;11.33;66.25
18527;BME280;9393;42.158;24.748;2023-03-08T00:25:12;98804.91;;;11.02;67.22
18527;BME280;9393;42.158;24.748;2023-03-08T00:28:17;98811.25;;;11.40;65.79
18527;BME280;9393;42.158;24.748;2023-03-08T00:31:21;98807.97;;;11.46;65.47
18527;BME280;9393;42.158;24.748;2023-03-08T00:34:27;98814.03;;;11.46;65.67
18527;BME280;9393;42.158;24.748;2023-03-08T00:37:33;98812.53;;;11.52;65.42
18527;BME280;9393;42.158;24.748;2023-03-08T00:40:36;98803.72;;;11.53;65.13
18527;BME280;9393;42.158;24.748;2023-03-08T00:43:40;98808.63;;;11.56;65.22
18527;BME280;9393;42.158;24.748;2023-03-08T00:46:44;98802.28;;;11.42;65.76
18527;BME280;9393;42.158;24.748;2023-03-08T00:49:48;98805.72;;;11.43;65.62
18527;BME280;9393;42.158;24.748;2023-03-08T00:52:53;98800.31;;;11.60;64.95
18527;BME280;9393;42.158;24.748;2023-03-08T00:55:58;98800.47;;;11.43;65.47
18527;BME280;9393;42.158;24.748;2023-03-08T00:59:04;98800.97;;;11.38;65.69
18527;BME280;9393;42.158;24.748;2023-03-08T01:02:09;98792.81;;;11.17;66.34
18527;BME280;9393;42.158;24.748;2023-03-08T01:05:14;98807.84;;;11.15;66.11
18527;BME280;9393;42.158;24.748;2023-03-08T01:08:20;98796.22;;;11.42;65.45
18527;BME280;9393;42.158;24.748;2023-03-08T01:11:25;98795.28;;;11.19;66.76
18527;BME280;9393;42.158;24.748;2023-03-08T01:14:30;98805.22;;;11.47;65.80
18527;BME280;9393;42.158;24.748;2023-03-08T01:17:33;98798.88;;;11.34;66.18
18527;BME280;9393;42.158;24.748;2023-03-08T01:20:38;98797.72;;;11.12;66.63
18527;BME280;9393;42.158;24.748;2023-03-08T01:23:43;98799.84;;;11.25;65.77
18527;BME280;9393;42.158;24.748;2023-03-08T01:26:47;98803.09;;;11.10;66.17
18527;BME280;9393;42.158;24.748;2023-03-08T01:29:52;98804.09;;;11.09;66.05
18527;BME280;9393;42.158;24.748;2023-03-08T01:32:58;98808.63;;;11.07;65.85
18527;BME280;9393;42.158;24.748;2023-03-08T01:36:03;98807.97;;;10.97;66.09
18527;BME280;9393;42.158;24.748;2023-03-08T01:39:08;98793.81;;;11.08;65.45
18527;BME280;9393;42.158;24.748;2023-03-08T01:42:12;98800.81;;;10.75;66.61
18527;BME280;9393;42.158;24.748;2023-03-08T01:49:04;98804.84;;;10.70;66.27
18527;BME280;9393;42.158;24.748;2023-03-08T01:52:11;98797.28;;;10.34;67.29
18527;BME280;9393;42.158;24.748;2023-03-08T01:55:18;98814.94;;;10.73;66.21
18527;BME280;9393;42.158;24.748;2023-03-08T01:58:22;98818.06;;;10.68;66.11
18527;BME280;9393;42.158;24.748;2023-03-08T02:01:28;98808.88;;;10.48;66.93
18527;BME280;9393;42.158;24.748;2023-03-08T02:04:33;98812.28;;;10.48;66.75
18527;BME280;9393;42.158;24.748;2023-03-08T02:07:40;98807.28;;;10.63;65.92
18527;BME280;9393;42.158;24.748;2023-03-08T02:10:45;98806.63;;;10.61;65.61
18527;BME280;9393;42.158;24.748;2023-03-08T02:13:50;98794.59;;;10.68;65.22
18527;BME280;9393;42.158;24.748;2023-03-08T02:16:56;98799.28;;;10.56;65.58
18527;BME280;9393;42.158;24.748;2023-03-08T02:20:07;98795.47;;;10.35;66.86
18527;BME280;9393;42.158;24.748;2023-03-08T02:23:16;98800.09;;;9.30;70.89
18527;BME280;9393;42.158;24.748;2023-03-08T02:26:20;98802.91;;;9.62;69.41
18527;BME280;9393;42.158;24.748;2023-03-08T02:29:24;98793.44;;;9.79;68.38
18527;BME280;9393;42.158;24.748;2023-03-08T02:32:28;98796.28;;;10.01;66.93
18527;BME280;9393;42.158;24.748;2023-03-08T02:35:35;98809.00;;;10.04;66.33
18527;BME280;9393;42.158;24.748;2023-03-08T02:38:41;98819.41;;;10.04;65.63
18527;BME280;9393;42.158;24.748;2023-03-08T02:41:44;98827.00;;;10.16;65.85
18527;BME280;9393;42.158;24.748;2023-03-08T02:44:48;98828.41;;;10.10;65.77
18527;BME280;9393;42.158;24.748;2023-03-08T02:47:52;98822.75;;;10.14;65.01
18527;BME280;9393;42.158;24.748;2023-03-08T02:50:56;98817.22;;;10.18;64.75
18527;BME280;9393;42.158;24.748;2023-03-08T02:54:01;98821.34;;;10.20;64.30
18527;BME280;9393;42.158;24.748;2023-03-08T02:57:05;98821.22;;;10.04;64.35
18527;BME280;9393;42.158;24.748;2023-03-08T03:00:12;98827.25;;;10.04;64.44
18527;BME280;9393;42.158;24.748;2023-03-08T03:03:16;98831.53;;;9.62;65.49
18527;BME280;9393;42.158;24.748;2023-03-08T03:06:21;98838.34;;;9.81;65.23
18527;BME280;9393;42.158;24.748;2023-03-08T03:09:30;98830.63;;;9.71;66.09
18527;BME280;9393;42.158;24.748;2023-03-08T03:12:33;98831.97;;;9.75;65.44
18527;BME280;9393;42.158;24.748;2023-03-08T03:15:40;98838.19;;;9.82;64.82
18527;BME280;9393;42.158;24.748;2023-03-08T03:18:44;98829.00;;;9.96;64.32
18527;BME280;9393;42.158;24.748;2023-03-08T03:21:48;98834.41;;;10.10;63.36
18527;BME280;9393;42.158;24.748;2023-03-08T03:24:53;98829.81;;;9.71;65.00
18527;BME280;9393;42.158;24.748;2023-03-08T03:27:57;98826.00;;;9.57;65.21
18527;BME280;9393;42.158;24.748;2023-03-08T03:31:06;98838.69;;;9.17;66.75
18527;BME280;9393;42.158;24.748;2023-03-08T03:34:10;98837.03;;;9.33;67.21
18527;BME280;9393;42.158;24.748;2023-03-08T03:37:15;98843.38;;;9.31;67.26
18527;BME280;9393;42.158;24.748;2023-03-08T03:40:21;98838.84;;;9.58;66.15
18527;BME280;9393;42.158;24.748;2023-03-08T03:43:30;98839.16;;;9.55;65.83
18527;BME280;9393;42.158;24.748;2023-03-08T03:46:34;98865.53;;;9.86;64.51
18527;BME280;9393;42.158;24.748;2023-03-08T03:49:41;98861.91;;;10.05;63.72
18527;BME280;9393;42.158;24.748;2023-03-08T03:52:45;98865.84;;;10.09;63.53
18527;BME280;9393;42.158;24.748;2023-03-08T03:55:51;98864.28;;;9.90;64.22
18527;BME280;9393;42.158;24.748;2023-03-08T03:58:56;98873.06;;;9.89;64.43
18527;BME280;9393;42.158;24.748;2023-03-08T04:02:01;98868.50;;;9.65;65.01
18527;BME280;9393;42.158;24.748;2023-03-08T04:05:15;98870.31;;;9.91;64.21
18527;BME280;9393;42.158;24.748;2023-03-08T04:08:23;98863.41;;;9.82;64.24
18527;BME280;9393;42.158;24.748;2023-03-08T04:11:33;98871.56;;;9.87;64.05
18527;BME280;9393;42.158;24.748;2023-03-08T04:14:38;98876.28;;;9.83;63.88
18527;BME280;9393;42.158;24.748;2023-03-08T04:17:44;98872.78;;;9.92;63.48
18527;BME280;9393;42.158;24.748;2023-03-08T04:20:48;98873.25;;;9.70;64.02
18527;BME280;9393;42.158;24.748;2023-03-08T04:23:53;98883.69;;;9.70;64.24
18527;BME280;9393;42.158;24.748;2023-03-08T04:26:59;98893.13;;;8.83;67.75
18527;BME280;9393;42.158;24.748;2023-03-08T04:30:04;98901.69;;;9.10;67.01
18527;BME280;9393;42.158;24.748;2023-03-08T04:33:09;98906.84;;;9.02;67.58
18527;BME280;9393;42.158;24.748;2023-03-08T04:36:21;98896.97;;;9.24;66.81
18527;BME280;9393;42.158;24.748;2023-03-08T04:39:28;98912.31;;;9.17;66.68
18527;BME280;9393;42.158;24.748;2023-03-08T04:42:33;98906.38;;;9.25;66.50
18527;BME280;9393;42.158;24.748;2023-03-08T04:45:38;98902.00;;;9.43;65.81
18527;BME280;9393;42.158;24.748;2023-03-08T04:48:46;98896.88;;;9.33;66.07
18527;BME280;9393;42.158;24.748;2023-03-08T04:51:51;98899.41;;;9.07;66.98
18527;BME280;9393;42.158;24.748;2023-03-08T04:54:56;98891.78;;;9.24;66.66
18527;BME280;9393;42.158;24.748;2023-03-08T04:58:03;98894.94;;;9.35;65.84
18527;BME280;9393;42.158;24.748;2023-03-08T05:01:08;98905.88;;;9.21;65.96
18527;BME280;9393;42.158;24.748;2023-03-08T05:04:16;98898.59;;;8.89;66.63
18527;BME280;9393;42.158;24.748;2023-03-08T05:07:20;98904.56;;;8.90;66.70
18527;BME280;9393;42.158;24.748;2023-03-08T05:10:27;98894.81;;;9.19;65.62
18527;BME280;9393;42.158;24.748;2023-03-08T05:13:33;98889.22;;;9.32;65.22
18527;BME280;9393;42.158;24.748;2023-03-08T05:16:38;98897.09;;;9.40;65.01
18527;BME280;9393;42.158;24.748;2023-03-08T05:19:43;98900.31;;;9.51;64.36
18527;BME280;9393;42.158;24.748;2023-03-08T05:22:52;98901.06;;;9.26;64.94
18527;BME280;9393;42.158;24.748;2023-03-08T05:26:07;98921.69;;;9.45;64.75
18527;BME280;9393;42.158;24.748;2023-03-08T05:29:13;98914.41;;;9.49;64.43
18527;BME280;9393;42.158;24.748;2023-03-08T05:32:17;98913.97;;;9.36;64.18
18527;BME280;9393;42.158;24.748;2023-03-08T05:35:23;98913.75;;;9.11;66.47
18527;BME280;9393;42.158;24.748;2023-03-08T05:38:28;98907.78;;;9.01;66.71
18527;BME280;9393;42.158;24.748;2023-03-08T05:41:33;98918.28;;;9.09;66.34
18527;BME280;9393;42.158;24.748;2023-03-08T05:44:39;98920.44;;;9.49;65.31
18527;BME280;9393;42.158;24.748;2023-03-08T05:47:46;98926.59;;;9.66;64.35
18527;BME280;9393;42.158;24.748;2023-03-08T05:50:50;98933.25;;;9.86;63.99
18527;BME280;9393;42.158;24.748;2023-03-08T05:53:54;98939.75;;;9.82;63.41
18527;BME280;9393;42.158;24.748;2023-03-08T05:56:58;98941.44;;;9.91;63.39
18527;BME280;9393;42.158;24.748;2023-03-08T06:00:06;98942.50;;;10.24;62.63
18527;BME280;9393;42.158;24.748;2023-03-08T06:03:26;98950.94;;;10.44;62.87
18527;BME280;9393;42.158;24.748;2023-03-08T06:06:31;98956.22;;;10.60;62.05
18527;BME280;9393;42.158;24.748;2023-03-08T06:09:38;98962.03;;;10.88;61.02
18527;BME280;9393;42.158;24.748;2023-03-08T06:12:47;98965.38;;;11.14;59.62
18527;BME280;9393;42.158;24.748;2023-03-08T06:15:56;98965.94;;;11.50;59.77
18527;BME280;9393;42.158;24.748;2023-03-08T06:19:02;98964.53;;;11.80;57.88
18527;BME280;9393;42.158;24.748;2023-03-08T06:22:08;98968.13;;;11.79;59.09
18527;BME280;9393;42.158;24.748;2023-03-08T06:25:12;98966.59;;;12.33;56.51
18527;BME280;9393;42.158;24.748;2023-03-08T06:28:16;98965.34;;;11.88;56.49
18527;BME280;9393;42.158;24.748;2023-03-08T06:31:22;98964.34;;;11.97;57.49
18527;BME280;9393;42.158;24.748;2023-03-08T06:34:26;98971.44;;;12.68;56.21
18527;BME280;9393;42.158;24.748;2023-03-08T06:37:32;98983.22;;;13.03;54.95
18527;BME280;9393;42.158;24.748;2023-03-08T06:40:37;98993.66;;;13.42;53.61
18527;BME280;9393;42.158;24.748;2023-03-08T06:43:41;99004.75;;;13.52;53.45
18527;BME280;9393;42.158;24.748;2023-03-08T06:46:47;99019.06;;;13.87;52.03
18527;BME280;9393;42.158;24.748;2023-03-08T06:49:51;99012.38;;;13.84;52.27
18527;BME280;9393;42.158;24.748;2023-03-08T06:52:55;99016.75;;;13.92;51.52
18527;BME280;9393;42.158;24.748;2023-03-08T06:56:15;99020.34;;;14.13;51.26
18527;BME280;9393;42.158;24.748;2023-03-08T06:59:19;99014.59;;;14.33;50.41
18527;BME280;9393;42.158;24.748;2023-03-08T07:02:25;99024.19;;;13.57;52.02
18527;BME280;9393;42.158;24.748;2023-03-08T07:05:29;99031.44;;;14.01;51.21
18527;BME280;9393;42.158;24.748;2023-03-08T07:08:34;99024.34;;;14.47;50.33
18527;BME280;9393;42.158;24.748;2023-03-08T07:11:38;99022.09;;;14.73;49.61
18527;BME280;9393;42.158;24.748;2023-03-08T07:14:42;99026.09;;;14.98;49.22
18527;BME280;9393;42.158;24.748;2023-03-08T07:17:48;99022.78;;;15.26;48.46
18527;BME280;9393;42.158;24.748;2023-03-08T07:20:53;99032.47;;;15.40;48.66
18527;BME280;9393;42.158;24.748;2023-03-08T07:23:58;99022.19;;;15.59;48.03
18527;BME280;9393;42.158;24.748;2023-03-08T07:27:02;99022.91;;;15.03;49.20
18527;BME280;9393;42.158;24.748;2023-03-08T07:30:07;99026.09;;;14.98;49.13
18527;BME280;9393;42.158;24.748;2023-03-08T07:33:13;99030.78;;;14.74;49.79
18527;BME280;9393;42.158;24.748;2023-03-08T07:36:17;99020.66;;;14.85;49.67
18527;BME280;9393;42.158;24.748;2023-03-08T07:39:21;99027.31;;;15.32;48.42
18527;BME280;9393;42.158;24.748;2023-03-08T07:42:25;99027.66;;;15.58;48.45
18527;BME280;9393;42.158;24.748;2023-03-08T07:45:36;99021.66;;;16.06;46.91
18527;BME280;9393;42.158;24.748;2023-03-08T07:48:42;99025.50;;;16.10;46.81
18527;BME280;9393;42.158;24.748;2023-03-08T07:51:47;99025.50;;;16.10;46.53
18527;BME280;9393;42.158;24.748;2023-03-08T07:54:52;99026.00;;;16.21;45.96
18527;BME280;9393;42.158;24.748;2023-03-08T07:57:56;99027.72;;;16.56;44.86
18527;BME280;9393;42.158;24.748;2023-03-08T08:01:00;99023.22;;;16.78;44.71
18527;BME280;9393;42.158;24.748;2023-03-08T08:04:06;99023.41;;;17.17;44.32
18527;BME280;9393;42.158;24.748;2023-03-08T08:07:12;99025.00;;;17.11;44.31
18527;BME280;9393;42.158;24.748;2023-03-08T08:10:16;99019.28;;;17.55;43.51
18527;BME280;9393;42.158;24.748;2023-03-08T08:13:20;99019.59;;;17.87;42.67
18527;BME280;9393;42.158;24.748;2023-03-08T08:16:24;99022.44;;;18.11;42.73
18527;BME280;9393;42.158;24.748;2023-03-08T08:19:30;99012.94;;;18.30;42.36
18527;BME280;9393;42.158;24.748;2023-03-08T08:22:34;99015.97;;;18.53;41.43
18527;BME280;9393;42.158;24.748;2023-03-08T08:25:38;99018.81;;;18.65;41.40
18527;BME280;9393;42.158;24.748;2023-03-08T08:28:45;99012.50;;;18.59;41.25
18527;BME280;9393;42.158;24.748;2023-03-08T08:31:50;99017.38;;;18.36;41.85
18527;BME280;9393;42.158;24.748;2023-03-08T08:34:56;99029.09;;;18.99;40.96
18527;BME280;9393;42.158;24.748;2023-03-08T08:38:01;99025.38;;;19.20;40.28
18527;BME280;9393;42.158;24.748;2023-03-08T08:41:06;99027.91;;;19.40;40.07
18527;BME280;9393;42.158;24.748;2023-03-08T08:44:10;99029.34;;;19.42;39.88
18527;BME280;9393;42.158;24.748;2023-03-08T08:47:14;99033.56;;;19.56;39.35
18527;BME280;9393;42.158;24.748;2023-03-08T08:50:19;99030.44;;;19.15;39.84
18527;BME280;9393;42.158;24.748;2023-03-08T08:53:23;99026.13;;;19.34;40.37
18527;BME280;9393;42.158;24.748;2023-03-08T08:56:28;99026.06;;;19.53;40.08
18527;BME280;9393;42.158;24.748;2023-03-08T08:59:34;99024.69;;;19.82;39.81
18527;BME280;9393;42.158;24.748;2023-03-08T09:02:38;99015.44;;;19.91;39.06
18527;BME280;9393;42.158;24.748;2023-03-08T09:05:44;99007.03;;;20.01;39.07
18527;BME280;9393;42.158;24.748;2023-03-08T09:08:48;99008.38;;;18.83;40.44
18527;BME280;9393;42.158;24.748;2023-03-08T09:11:53;98996.81;;;19.42;39.16
18527;BME280;9393;42.158;24.748;2023-03-08T09:14:57;98997.69;;;18.39;40.71
18527;BME280;9393;42.158;24.748;2023-03-08T09:18:01;98985.56;;;19.53;39.13
18527;BME280;9393;42.158;24.748;2023-03-08T09:21:07;98983.81;;;20.28;38.32
18527;BME280;9393;42.158;24.748;2023-03-08T09:24:11;98974.50;;;19.94;38.08
18527;BME280;9393;42.158;24.748;2023-03-08T09:27:15;98982.97;;;20.52;37.51
18527;BME280;9393;42.158;24.748;2023-03-08T09:30:19;98979.09;;;20.05;37.73
18527;BME280;9393;42.158;24.748;2023-03-08T09:33:23;98979.34;;;19.97;37.83
18527;BME280;9393;42.158;24.748;2023-03-08T09:36:29;98977.53;;;20.47;37.04
18527;BME280;9393;42.158;24.748;2023-03-08T09:39:33;98977.44;;;20.35;36.93
18527;BME280;9393;42.158;24.748;2023-03-08T09:42:37;98979.47;;;20.08;37.77
18527;BME280;9393;42.158;24.748;2023-03-08T09:45:41;98976.31;;;20.67;36.31
18527;BME280;9393;42.158;24.748;2023-03-08T09:48:47;98984.53;;;20.59;36.60
18527;BME280;9393;42.158;24.748;2023-03-08T09:51:58;98980.81;;;20.17;36.62
18527;BME280;9393;42.158;24.748;2023-03-08T09:55:10;98971.41;;;19.97;37.26
18527;BME280;9393;42.158;24.748;2023-03-08T09:58:26;98976.53;;;20.66;36.64
18527;BME280;9393;42.158;24.748;2023-03-08T10:01:37;98971.97;;;21.09;35.41
18527;BME280;9393;42.158;24.748;2023-03-08T10:04:50;98971.94;;;20.55;35.89
18527;BME280;9393;42.158;24.748;2023-03-08T10:08:16;98966.38;;;20.99;35.35
18527;BME280;9393;42.158;24.748;2023-03-08T10:11:27;98966.50;;;21.04;34.74
18527;BME280;9393;42.158;24.748;2023-03-08T10:14:35;98967.25;;;21.11;34.63
18527;BME280;9393;42.158;24.748;2023-03-08T10:17:46;98962.97;;;21.10;34.62
18527;BME280;9393;42.158;24.748;2023-03-08T10:20:52;98959.44;;;21.46;34.12
18527;BME280;9393;42.158;24.748;2023-03-08T10:24:03;98957.31;;;20.71;34.57
18527;BME280;9393;42.158;24.748;2023-03-08T10:27:15;98950.28;;;21.31;34.39
18527;BME280;9393;42.158;24.748;2023-03-08T10:30:22;98954.22;;;21.70;33.71
18527;BME280;9393;42.158;24.748;2023-03-08T10:33:31;98945.75;;;21.91;30.89
18527;BME280;9393;42.158;24.748;2023-03-08T10:36:46;98935.22;;;21.43;30.54
18527;BME280;9393;42.158;24.748;2023-03-08T10:39:54;98934.91;;;21.62;30.12
18527;BME280;9393;42.158;24.748;2023-03-08T10:43:03;98926.94;;;21.92;30.51
18527;BME280;9393;42.158;24.748;2023-03-08T10:46:11;98926.56;;;21.89;30.85
18527;BME280;9393;42.158;24.748;2023-03-08T10:49:17;98920.31;;;21.83;30.22
18527;BME280;9393;42.158;24.748;2023-03-08T10:52:25;98912.41;;;21.95;30.61
18527;BME280;9393;42.158;24.748;2023-03-08T10:55:39;98911.47;;;22.24;30.01
18527;BME280;9393;42.158;24.748;2023-03-08T10:58:46;98907.47;;;21.57;29.97
18527;BME280;9393;42.158;24.748;2023-03-08T11:01:52;98905.53;;;21.87;29.19
18527;BME280;9393;42.158;24.748;2023-03-08T11:04:59;98890.22;;;22.36;29.18
18527;BME280;9393;42.158;24.748;2023-03-08T11:08:03;98885.09;;;22.69;29.08
18527;BME280;9393;42.158;24.748;2023-03-08T11:11:19;98886.44;;;22.83;28.35
18527;BME280;9393;42.158;24.748;2023-03-08T11:14:23;98880.69;;;22.63;28.18
18527;BME280;9393;42.158;24.748;2023-03-08T11:17:31;98868.97;;;22.36;28.32
18527;BME280;9393;42.158;24.748;2023-03-08T11:20:42;98871.69;;;22.52;28.61
18527;BME280;9393;42.158;24.748;2023-03-08T11:23:54;98865.38;;;22.42;28.29
18527;BME280;9393;42.158;24.748;2023-03-08T11:27:14;98860.31;;;22.17;28.35
18527;BME280;9393;42.158;24.748;2023-03-08T11:30:31;98850.97;;;22.14;28.28
18527;BME280;9393;42.158;24.748;2023-03-08T11:33:57;98853.63;;;22.78;28.55
18527;BME280;9393;42.158;24.748;2023-03-08T11:37:10;98847.34;;;23.12;27.62
18527;BME280;9393;42.158;24.748;2023-03-08T11:40:22;98846.22;;;23.08;27.53
18527;BME280;9393;42.158;24.748;2023-03-08T11:43:43;98838.03;;;23.26;27.02
18527;BME280;9393;42.158;24.748;2023-03-08T11:46:59;98836.25;;;23.32;27.62
18527;BME280;9393;42.158;24.748;2023-03-08T11:50:08;98825.72;;;23.37;26.88
18527;BME280;9393;42.158;24.748;2023-03-08T11:53:18;98826.25;;;22.26;27.55
18527;BME280;9393;42.158;24.748;2023-03-08T11:56:38;98832.50;;;21.96;28.25
18527;BME280;9393;42.158;24.748;2023-03-08T11:59:50;98826.72;;;21.76;28.49
18527;BME280;9393;42.158;24.748;2023-03-08T12:03:01;98827.44;;;21.72;28.49
18527;BME280;9393;42.158;24.748;2023-03-08T12:06:12;98825.44;;;22.13;28.05
18527;BME280;9393;42.158;24.748;2023-03-08T12:09:33;98819.22;;;22.71;27.64
18527;BME280;9393;42.158;24.748;2023-03-08T12:12:42;98816.06;;;23.02;27.64
18527;BME280;9393;42.158;24.748;2023-03-08T12:15:53;98800.13;;;23.02;27.35
18527;BME280;9393;42.158;24.748;2023-03-08T12:19:00;98801.44;;;23.33;27.17
18527;BME280;9393;42.158;24.748;2023-03-08T12:22:18;98805.28;;;23.26;26.80
18527;BME280;9393;42.158;24.748;2023-03-08T12:25:26;98792.53;;;23.11;27.37
18527;BME280;9393;42.158;24.748;2023-03-08T12:28:34;98805.19;;;23.21;27.01
18527;BME280;9393;42.158;24.748;2023-03-08T12:31:43;98809.03;;;23.41;26.76
18527;BME280;9393;42.158;24.748;2023-03-08T12:34:59;98800.47;;;22.66;27.22
18527;BME280;9393;42.158;24.748;2023-03-08T12:41:26;98804.38;;;21.95;28.05
18527;BME280;9393;42.158;24.748;2023-03-08T12:44:31;98802.34;;;22.26;27.82
18527;BME280;9393;42.158;24.748;2023-03-08T12:47:37;98800.50;;;22.26;27.98
18527;BME280;9393;42.158;24.748;2023-03-08T12:50:44;98796.41;;;22.47;28.32
18527;BME280;9393;42.158;24.748;2023-03-08T12:53:57;98794.50;;;22.19;28.72
18527;BME280;9393;42.158;24.748;2023-03-08T12:57:14;98795.53;;;22.18;28.36
18527;BME280;9393;42.158;24.748;2023-03-08T13:00:27;98794.31;;;21.86;28.96
18527;BME280;9393;42.158;24.748;2023-03-08T13:03:38;98791.53;;;21.81;29.48
18527;BME280;9393;42.158;24.748;2023-03-08T13:07:13;98787.84;;;21.47;29.79
18527;BME280;9393;42.158;24.748;2023-03-08T13:10:22;98785.53;;;21.62;29.52
18527;BME280;9393;42.158;24.748;2023-03-08T13:13:37;98779.13;;;22.33;28.87
18527;BME280;9393;42.158;24.748;2023-03-08T13:16:41;98782.78;;;22.43;28.23
18527;BME280;9393;42.158;24.748;2023-03-08T13:19:49;98777.34;;;22.38;28.11
18527;BME280;9393;42.158;24.748;2023-03-08T13:23:00;98774.50;;;22.28;28.03
18527;BME280;9393;42.158;24.748;2023-03-08T13:26:26;98776.13;;;22.29;27.94
18527;BME280;9393;42.158;24.748;2023-03-08T13:29:51;98770.34;;;22.32;28.04
18527;BME280;9393;42.158;24.748;2023-03-08T13:32:56;98774.38;;;22.35;27.27
18527;BME280;9393;42.158;24.748;2023-03-08T13:36:04;98780.25;;;22.77;27.50
18527;BME280;9393;42.158;24.748;2023-03-08T13:39:17;98779.13;;;22.89;26.65
18527;BME280;9393;42.158;24.748;2023-03-08T13:42:22;98781.75;;;23.01;26.99
18527;BME280;9393;42.158;24.748;2023-03-08T13:45:28;98772.38;;;22.82;27.18
18527;BME280;9393;42.158;24.748;2023-03-08T13:48:33;98775.34;;;22.57;27.41
18527;BME280;9393;42.158;24.748;2023-03-08T13:51:42;98766.41;;;22.75;27.53
18527;BME280;9393;42.158;24.748;2023-03-08T13:54:49;98766.13;;;22.76;27.75
18527;BME280;9393;42.158;24.748;2023-03-08T13:57:54;98761.88;;;22.75;28.30
18527;BME280;9393;42.158;24.748;2023-03-08T14:01:00;98755.38;;;22.14;28.79
18527;BME280;9393;42.158;24.748;2023-03-08T14:04:10;98756.81;;;21.94;28.85
18527;BME280;9393;42.158;24.748;2023-03-08T14:07:20;98751.72;;;21.81;28.93
18527;BME280;9393;42.158;24.748;2023-03-08T14:10:29;98745.13;;;22.06;29.02
18527;BME280;9393;42.158;24.748;2023-03-08T14:13:36;98748.34;;;22.08;28.94
18527;BME280;9393;42.158;24.748;2023-03-08T14:16:41;98743.06;;;21.97;28.77
18527;BME280;9393;42.158;24.748;2023-03-08T14:19:52;98738.69;;;21.56;29.00
18527;BME280;9393;42.158;24.748;2023-03-08T14:22:58;98741.78;;;21.76;29.20
18527;BME280;9393;42.158;24.748;2023-03-08T14:26:02;98740.41;;;21.74;28.86
18527;BME280;9393;42.158;24.748;2023-03-08T14:29:16;98744.81;;;21.68;28.98
18527;BME280;9393;42.158;24.748;2023-03-08T14:32:28;98740.50;;;21.09;29.40
18527;BME280;9393;42.158;24.748;2023-03-08T14:35:35;98738.69;;;20.80;29.81
18527;BME280;9393;42.158;24.748;2023-03-08T14:38:41;98742.19;;;20.50;30.30
18527;BME280;9393;42.158;24.748;2023-03-08T14:41:45;98745.31;;;20.29;30.86
18527;BME280;9393;42.158;24.748;2023-03-08T14:44:50;98737.06;;;20.19;30.70
18527;BME280;9393;42.158;24.748;2023-03-08T14:47:56;98737.72;;;20.14;31.13
18527;BME280;9393;42.158;24.748;2023-03-08T14:51:01;98736.13;;;19.95;31.21
18527;BME280;9393;42.158;24.748;2023-03-08T14:54:20;98728.63;;;19.92;31.43
18527;BME280;9393;42.158;24.748;2023-03-08T14:57:26;98738.03;;;19.70;31.41
18527;BME280;9393;42.158;24.748;2023-03-08T15:00:31;98729.03;;;19.53;31.92
18527;BME280;9393;42.158;24.748;2023-03-08T15:03:35;98738.53;;;19.60;31.80
18527;BME280;9393;42.158;24.748;2023-03-08T15:06:39;98734.94;;;19.73;31.48
18527;BME280;9393;42.158;24.748;2023-03-08T15:09:45;98728.75;;;19.79;31.52
18527;BME280;9393;42.158;24.748;2023-03-08T15:12:49;98737.13;;;19.76;31.61
18527;BME280;9393;42.158;24.748;2023-03-08T15:15:53;98734.03;;;19.79;31.63
18527;BME280;9393;42.158;24.748;2023-03-08T15:18:57;98736.94;;;19.96;31.96
18527;BME280;9393;42.158;24.748;2023-03-08T15:22:03;98734.00;;;19.86;31.67
18527;BME280;9393;42.158;24.748;2023-03-08T15:25:14;98737.63;;;19.48;32.24
18527;BME280;9393;42.158;24.748;2023-03-08T15:28:20;98742.72;;;19.68;31.81
18527;BME280;9393;42.158;24.748;2023-03-08T15:31:24;98735.75;;;19.74;31.17
18527;BME280;9393;42.158;24.748;2023-03-08T15:34:28;98736.56;;;19.74;31.00
18527;BME280;9393;42.158;24.748;2023-03-08T15:37:32;98730.22;;;19.57;31.17
18527;BME280;9393;42.158;24.748;2023-03-08T15:40:37;98723.94;;;19.51;31.68
18527;BME280;9393;42.158;24.748;2023-03-08T15:43:41;98726.84;;;19.50;31.59
18527;BME280;9393;42.158;24.748;2023-03-08T15:46:45;98727.63;;;19.26;31.75
18527;BME280;9393;42.158;24.748;2023-03-08T15:49:52;98730.84;;;19.28;31.89
18527;BME280;9393;42.158;24.748;2023-03-08T15:52:56;98729.34;;;19.13;32.75
18527;BME280;9393;42.158;24.748;2023-03-08T15:56:02;98734.44;;;19.15;32.83
18527;BME280;9393;42.158;24.748;2023-03-08T15:59:06;98742.84;;;19.05;32.82
18527;BME280;9393;42.158;24.748;2023-03-08T16:02:12;98746.50;;;19.04;33.14
18527;BME280;9393;42.158;24.748;2023-03-08T16:05:17;98739.78;;;19.08;33.41
18527;BME280;9393;42.158;24.748;2023-03-08T16:08:24;98743.41;;;18.83;33.44
18527;BME280;9393;42.158;24.748;2023-03-08T16:11:31;98737.75;;;18.79;33.31
18527;BME280;9393;42.158;24.748;2023-03-08T16:14:35;98750.59;;;18.69;33.24
18527;BME280;9393;42.158;24.748;2023-03-08T16:17:39;98753.09;;;18.64;33.86
18527;BME280;9393;42.158;24.748;2023-03-08T16:20:43;98758.09;;;18.72;33.78
18527;BME280;9393;42.158;24.748;2023-03-08T16:23:47;98763.78;;;18.76;33.88
18527;BME280;9393;42.158;24.748;2023-03-08T16:26:53;98766.22;;;18.77;33.92
18527;BME280;9393;42.158;24.748;2023-03-08T16:29:57;98765.00;;;18.73;34.01
18527;BME280;9393;42.158;24.748;2023-03-08T16:33:03;98768.09;;;18.70;34.35
18527;BME280;9393;42.158;24.748;2023-03-08T16:36:07;98768.72;;;18.65;34.08
18527;BME280;9393;42.158;24.748;2023-03-08T16:39:11;98768.31;;;18.62;34.04